sensor_id;sensor_type;location;lat;lon;timestamp;pressure;altitude;pressure_sealevel;temperature;humidity
59029;BME280;45919;51.420;5.454;2022-07-29T00:00:09;101516.94;;;19.52;47.18
59029;BME280;45919;51.420;5.454;2022-07-29T00:01:14;101509.84;;;19.56;47.20
59029;BME280;45919;51.420;5.454;2022-07-29T00:02:16;101522.19;;;19.55;47.28
59029;BME280;45919;51.420;5.454;2022-07-29T00:03:18;101530.16;;;19.54;47.28
59029;BME280;45919;51.420;5.454;2022-07-29T00:04:20;101523.09;;;19.54;47.41
59029;BME280;45919;51.420;5.454;2022-07-29T00:05:21;101524.88;;;19.54;47.31
59029;BME280;45919;51.420;5.454;2022-07-29T00:06:23;101524.91;;;19.52;47.29
59029;BME280;45919;51.420;5.454;2022-07-29T00:07:25;101523.13;;;19.51;47.23
59029;BME280;45919;51.420;5.454;2022-07-29T00:08:26;101519.63;;;19.51;47.47
59029;BME280;45919;51.420;5.454;2022-07-29T00:09:28;101521.38;;;19.50;47.44
59029;BME280;45919;51.420;5.454;2022-07-29T00:10:30;101527.56;;;19.51;47.46
59029;BME280;45919;51.420;5.454;2022-07-29T00:11:31;101524.06;;;19.48;47.55
59029;BME280;45919;51.420;5.454;2022-07-29T00:12:33;101507.38;;;19.39;47.73
59029;BME280;45919;51.420;5.454;2022-07-29T00:13:35;101520.53;;;19.46;47.57
59029;BME280;45919;51.420;5.454;2022-07-29T00:14:36;101522.31;;;19.44;47.50
59029;BME280;45919;51.420;5.454;2022-07-29T00:15:38;101524.06;;;19.45;47.85
59029;BME280;45919;51.420;5.454;2022-07-29T00:16:39;101510.09;;;19.32;47.58
59029;BME280;45919;51.420;5.454;2022-07-29T00:17:41;101532.06;;;19.42;47.68
59029;BME280;45919;51.420;5.454;2022-07-29T00:18:43;101460.09;;;18.98;47.87
59029;BME280;45919;51.420;5.454;2022-07-29T00:19:44;101529.44;;;19.39;47.91
59029;BME280;45919;51.420;5.454;2022-07-29T00:20:46;101530.31;;;19.38;47.75
59029;BME280;45919;51.420;5.454;2022-07-29T00:21:48;101522.47;;;19.32;47.74
59029;BME280;45919;51.420;5.454;2022-07-29T00:22:49;101525.94;;;19.35;47.59
59029;BME280;45919;51.420;5.454;2022-07-29T00:23:51;101548.84;;;19.43;47.58
59029;BME280;45919;51.420;5.454;2022-07-29T00:24:52;101531.28;;;19.31;47.64
59029;BME280;45919;51.420;5.454;2022-07-29T00:25:54;101553.31;;;19.36;47.96
59029;BME280;45919;51.420;5.454;2022-07-29T00:26:56;101553.34;;;19.33;47.86
59029;BME280;45919;51.420;5.454;2022-07-29T00:27:57;101560.41;;;19.34;47.99
59029;BME280;45919;51.420;5.454;2022-07-29T00:29:00;101491.03;;;18.96;47.79
59029;BME280;45919;51.420;5.454;2022-07-29T00:30:22;101578.88;;;19.39;47.84
59029;BME280;45919;51.420;5.454;2022-07-29T00:31:24;101572.81;;;19.30;47.93
59029;BME280;45919;51.420;5.454;2022-07-29T00:32:25;101589.47;;;19.39;47.99
59029;BME280;45919;51.420;5.454;2022-07-29T00:33:28;101591.25;;;19.40;48.31
59029;BME280;45919;51.420;5.454;2022-07-29T00:34:30;101603.59;;;19.41;48.35
59029;BME280;45919;51.420;5.454;2022-07-29T00:35:50;101613.28;;;19.42;48.48
59029;BME280;45919;51.420;5.454;2022-07-29T00:36:51;101608.91;;;19.39;48.91
59029;BME280;45919;51.420;5.454;2022-07-29T00:37:53;101616.84;;;19.41;50.34
59029;BME280;45919;51.420;5.454;2022-07-29T00:38:55;101620.41;;;19.40;51.73
59029;BME280;45919;51.420;5.454;2022-07-29T00:39:56;101610.69;;;19.39;52.46
59029;BME280;45919;51.420;5.454;2022-07-29T00:40:58;101601.00;;;19.33;55.77
59029;BME280;45919;51.420;5.454;2022-07-29T00:42:03;101601.91;;;19.32;57.02
59029;BME280;45919;51.420;5.454;2022-07-29T00:43:05;101597.59;;;19.23;57.56
59029;BME280;45919;51.420;5.454;2022-07-29T00:44:07;101596.72;;;19.21;60.05
59029;BME280;45919;51.420;5.454;2022-07-29T00:45:09;101595.88;;;19.11;60.69
59029;BME280;45919;51.420;5.454;2022-07-29T00:46:11;101599.44;;;19.08;61.98
59029;BME280;45919;51.420;5.454;2022-07-29T00:47:13;101572.22;;;18.91;63.99
59029;BME280;45919;51.420;5.454;2022-07-29T00:48:14;101596.00;;;18.98;63.88
59029;BME280;45919;51.420;5.454;2022-07-29T00:49:16;101581.94;;;18.90;65.44
59029;BME280;45919;51.420;5.454;2022-07-29T00:50:18;101586.34;;;18.90;65.40
59029;BME280;45919;51.420;5.454;2022-07-29T00:51:19;101578.47;;;18.82;65.85
59029;BME280;45919;51.420;5.454;2022-07-29T00:52:21;101576.66;;;18.87;65.26
59029;BME280;45919;51.420;5.454;2022-07-29T00:53:23;101572.28;;;18.84;65.81
59029;BME280;45919;51.420;5.454;2022-07-29T00:54:24;101567.03;;;18.81;66.66
59029;BME280;45919;51.420;5.454;2022-07-29T00:55:28;101553.84;;;18.73;66.45
59029;BME280;45919;51.420;5.454;2022-07-29T00:56:31;101554.69;;;18.77;65.63
59029;BME280;45919;51.420;5.454;2022-07-29T00:57:34;101552.09;;;18.71;66.17
59029;BME280;45919;51.420;5.454;2022-07-29T00:58:36;101555.66;;;18.68;65.76
59029;BME280;45919;51.420;5.454;2022-07-29T00:59:37;101543.31;;;18.66;65.73
59029;BME280;45919;51.420;5.454;2022-07-29T01:00:39;101532.75;;;18.62;65.55
59029;BME280;45919;51.420;5.454;2022-07-29T01:01:42;101534.53;;;18.60;66.17
59029;BME280;45919;51.420;5.454;2022-07-29T01:02:44;101529.25;;;18.54;64.96
59029;BME280;45919;51.420;5.454;2022-07-29T01:03:46;101518.72;;;18.51;66.22
59029;BME280;45919;51.420;5.454;2022-07-29T01:04:48;101509.03;;;18.47;65.25
59029;BME280;45919;51.420;5.454;2022-07-29T01:05:50;101490.59;;;18.36;64.76
59029;BME280;45919;51.420;5.454;2022-07-29T01:06:53;101496.75;;;18.38;65.30
59029;BME280;45919;51.420;5.454;2022-07-29T01:07:57;101489.78;;;18.29;64.88
59029;BME280;45919;51.420;5.454;2022-07-29T01:08:59;101480.16;;;18.20;65.89
59029;BME280;45919;51.420;5.454;2022-07-29T01:10:06;101474.88;;;18.15;65.85
59029;BME280;45919;51.420;5.454;2022-07-29T01:11:08;101470.47;;;18.08;66.77
59029;BME280;45919;51.420;5.454;2022-07-29T01:12:11;101464.38;;;18.00;66.99
59029;BME280;45919;51.420;5.454;2022-07-29T01:13:15;101457.34;;;17.94;67.55
59029;BME280;45919;51.420;5.454;2022-07-29T01:14:17;101457.38;;;17.89;68.63
59029;BME280;45919;51.420;5.454;2022-07-29T01:15:19;101459.16;;;17.83;68.46
59029;BME280;45919;51.420;5.454;2022-07-29T01:16:25;101401.19;;;17.56;70.11
59029;BME280;45919;51.420;5.454;2022-07-29T01:18:47;101432.88;;;17.62;70.62
59029;BME280;45919;51.420;5.454;2022-07-29T01:19:58;101428.47;;;17.53;71.11
59029;BME280;45919;51.420;5.454;2022-07-29T01:21:27;101413.50;;;17.57;71.57
59029;BME280;45919;51.420;5.454;2022-07-29T01:23:00;101416.19;;;17.46;68.75
59029;BME280;45919;51.420;5.454;2022-07-29T01:24:34;101408.31;;;17.38;71.21
59029;BME280;45919;51.420;5.454;2022-07-29T01:29:49;101382.06;;;16.77;74.45
59029;BME280;45919;51.420;5.454;2022-07-29T01:30:54;101431.28;;;16.88;75.20
59029;BME280;45919;51.420;5.454;2022-07-29T01:32:00;101434.81;;;16.88;74.68
59029;BME280;45919;51.420;5.454;2022-07-29T01:33:07;101449.75;;;16.88;75.25
59029;BME280;45919;51.420;5.454;2022-07-29T01:34:18;101448.91;;;16.89;74.00
59029;BME280;45919;51.420;5.454;2022-07-29T01:35:29;101470.00;;;16.90;75.54
59029;BME280;45919;51.420;5.454;2022-07-29T01:36:42;101473.53;;;16.94;77.02
59029;BME280;45919;51.420;5.454;2022-07-29T01:39:22;101482.31;;;16.97;77.56
59029;BME280;45919;51.420;5.454;2022-07-29T01:40:48;101474.38;;;17.07;78.03
59029;BME280;45919;51.420;5.454;2022-07-29T01:41:57;101462.94;;;17.00;78.34
59029;BME280;45919;51.420;5.454;2022-07-29T01:43:09;101449.78;;;16.94;79.18
59029;BME280;45919;51.420;5.454;2022-07-29T01:44:29;101427.75;;;16.95;78.47
59029;BME280;45919;51.420;5.454;2022-07-29T01:45:45;101455.03;;;17.11;76.09
59029;BME280;45919;51.420;5.454;2022-07-29T01:46:54;101449.75;;;17.11;73.92
59029;BME280;45919;51.420;5.454;2022-07-29T01:48:18;101440.94;;;17.17;74.33
59029;BME280;45919;51.420;5.454;2022-07-29T01:49:29;101361.00;;;16.66;75.46
59029;BME280;45919;51.420;5.454;2022-07-29T01:50:53;101438.31;;;17.17;75.45
59029;BME280;45919;51.420;5.454;2022-07-29T01:52:11;101435.66;;;17.23;76.26
59029;BME280;45919;51.420;5.454;2022-07-29T01:53:25;101411.91;;;17.09;76.03
59029;BME280;45919;51.420;5.454;2022-07-29T01:54:46;101423.31;;;17.27;76.39
59029;BME280;45919;51.420;5.454;2022-07-29T01:55:50;101427.75;;;17.15;75.82
59029;BME280;45919;51.420;5.454;2022-07-29T01:56:55;101423.34;;;17.16;76.23
59029;BME280;45919;51.420;5.454;2022-07-29T01:58:00;101422.47;;;17.15;76.60
59029;BME280;45919;51.420;5.454;2022-07-29T01:59:04;101425.09;;;17.17;76.84
59029;BME280;45919;51.420;5.454;2022-07-29T02:00:08;101422.47;;;17.17;77.84
59029;BME280;45919;51.420;5.454;2022-07-29T02:01:12;101431.25;;;17.20;77.76
59029;BME280;45919;51.420;5.454;2022-07-29T02:02:15;101426.88;;;17.19;78.14
59029;BME280;45919;51.420;5.454;2022-07-29T02:03:18;101434.78;;;17.19;78.50
59029;BME280;45919;51.420;5.454;2022-07-29T02:04:20;101432.13;;;17.21;76.38
59029;BME280;45919;51.420;5.454;2022-07-29T02:05:24;101433.91;;;17.25;77.04
59029;BME280;45919;51.420;5.454;2022-07-29T02:06:30;101437.41;;;17.27;77.73
59029;BME280;45919;51.420;5.454;2022-07-29T02:07:34;101433.88;;;17.27;77.27
59029;BME280;45919;51.420;5.454;2022-07-29T02:08:37;101419.81;;;17.18;77.81
59029;BME280;45919;51.420;5.454;2022-07-29T02:09:41;101423.34;;;17.20;77.35
59029;BME280;45919;51.420;5.454;2022-07-29T02:10:45;101436.53;;;17.27;77.39
59029;BME280;45919;51.420;5.454;2022-07-29T02:11:51;101435.63;;;17.26;77.13
59029;BME280;45919;51.420;5.454;2022-07-29T02:12:54;101433.88;;;17.27;77.45
59029;BME280;45919;51.420;5.454;2022-07-29T02:13:57;101433.00;;;17.25;76.56
59029;BME280;45919;51.420;5.454;2022-07-29T02:15:02;101435.66;;;17.25;76.49
59029;BME280;45919;51.420;5.454;2022-07-29T02:16:06;101428.63;;;17.25;76.78
59029;BME280;45919;51.420;5.454;2022-07-29T02:17:10;101428.59;;;17.27;77.56
59029;BME280;45919;51.420;5.454;2022-07-29T02:18:17;101433.88;;;17.30;77.74
59029;BME280;45919;51.420;5.454;2022-07-29T02:19:22;101432.09;;;17.26;78.03
59029;BME280;45919;51.420;5.454;2022-07-29T02:20:26;101430.34;;;17.26;77.85
59029;BME280;45919;51.420;5.454;2022-07-29T02:21:29;101406.63;;;17.09;77.63
59029;BME280;45919;51.420;5.454;2022-07-29T02:22:35;101434.78;;;17.27;77.59
59029;BME280;45919;51.420;5.454;2022-07-29T02:23:38;101435.66;;;17.25;77.39
59029;BME280;45919;51.420;5.454;2022-07-29T02:24:41;101399.63;;;17.03;77.81
59029;BME280;45919;51.420;5.454;2022-07-29T02:25:44;101436.53;;;17.22;77.88
59029;BME280;45919;51.420;5.454;2022-07-29T02:26:49;101437.38;;;17.26;77.31
59029;BME280;45919;51.420;5.454;2022-07-29T02:27:51;101410.16;;;17.05;77.63
59029;BME280;45919;51.420;5.454;2022-07-29T02:28:55;101441.81;;;17.27;77.22
59029;BME280;45919;51.420;5.454;2022-07-29T02:29:59;101412.78;;;17.11;77.89
59029;BME280;45919;51.420;5.454;2022-07-29T02:31:02;101432.13;;;17.21;77.64
59029;BME280;45919;51.420;5.454;2022-07-29T02:32:06;101429.47;;;17.26;78.13
59029;BME280;45919;51.420;5.454;2022-07-29T02:33:13;101423.34;;;17.25;78.35
59029;BME280;45919;51.420;5.454;2022-07-29T02:34:17;101385.53;;;17.01;78.34
59029;BME280;45919;51.420;5.454;2022-07-29T02:35:20;101417.16;;;17.18;77.90
59029;BME280;45919;51.420;5.454;2022-07-29T02:36:23;101432.13;;;17.21;78.45
59029;BME280;45919;51.420;5.454;2022-07-29T02:37:26;101429.50;;;17.19;78.37
59029;BME280;45919;51.420;5.454;2022-07-29T02:38:29;101423.38;;;17.14;78.99
59029;BME280;45919;51.420;5.454;2022-07-29T02:39:52;101413.66;;;17.08;78.65
59029;BME280;45919;51.420;5.454;2022-07-29T02:40:55;101432.16;;;17.12;79.63
59029;BME280;45919;51.420;5.454;2022-07-29T02:42:03;101429.50;;;17.13;78.84
59029;BME280;45919;51.420;5.454;2022-07-29T02:43:06;101436.53;;;17.09;79.15
59029;BME280;45919;51.420;5.454;2022-07-29T02:44:12;101432.16;;;17.08;79.50
59029;BME280;45919;51.420;5.454;2022-07-29T02:45:14;101438.28;;;17.06;79.75
59029;BME280;45919;51.420;5.454;2022-07-29T02:46:19;101443.59;;;17.09;80.39
59029;BME280;45919;51.420;5.454;2022-07-29T02:47:41;101441.84;;;17.05;79.14
59029;BME280;45919;51.420;5.454;2022-07-29T02:48:58;101431.25;;;17.19;79.23
59029;BME280;45919;51.420;5.454;2022-07-29T02:50:06;101422.47;;;17.09;81.07
59029;BME280;45919;51.420;5.454;2022-07-29T02:51:18;101414.53;;;17.07;79.36
59029;BME280;45919;51.420;5.454;2022-07-29T02:52:31;101429.50;;;17.18;79.31
59029;BME280;45919;51.420;5.454;2022-07-29T02:53:38;101425.97;;;17.08;79.69
59029;BME280;45919;51.420;5.454;2022-07-29T02:54:55;101418.97;;;17.16;78.89
59029;BME280;45919;51.420;5.454;2022-07-29T02:55:59;101430.41;;;17.14;79.17
59029;BME280;45919;51.420;5.454;2022-07-29T02:57:18;101430.38;;;17.15;78.79
59029;BME280;45919;51.420;5.454;2022-07-29T02:58:25;101426.88;;;17.18;78.49
59029;BME280;45919;51.420;5.454;2022-07-29T02:59:33;101423.34;;;17.16;78.71
59029;BME280;45919;51.420;5.454;2022-07-29T03:00:37;101431.28;;;17.16;78.85
59029;BME280;45919;51.420;5.454;2022-07-29T03:01:41;101428.63;;;17.16;77.49
59029;BME280;45919;51.420;5.454;2022-07-29T03:02:45;101422.47;;;17.14;78.12
59029;BME280;45919;51.420;5.454;2022-07-29T03:03:53;101422.47;;;17.15;78.16
59029;BME280;45919;51.420;5.454;2022-07-29T03:04:55;101421.59;;;17.12;78.42
59029;BME280;45919;51.420;5.454;2022-07-29T03:06:01;101426.00;;;17.13;78.74
59029;BME280;45919;51.420;5.454;2022-07-29T03:07:03;101423.34;;;17.08;78.29
59029;BME280;45919;51.420;5.454;2022-07-29T03:08:09;101426.00;;;17.05;77.71
59029;BME280;45919;51.420;5.454;2022-07-29T03:09:12;101427.78;;;16.98;77.86
59029;BME280;45919;51.420;5.454;2022-07-29T03:10:14;101429.53;;;16.96;77.70
59029;BME280;45919;51.420;5.454;2022-07-29T03:11:17;101413.72;;;16.83;77.24
59029;BME280;45919;51.420;5.454;2022-07-29T03:12:20;101428.66;;;16.91;76.63
59029;BME280;45919;51.420;5.454;2022-07-29T03:13:22;101427.78;;;16.89;76.58
59029;BME280;45919;51.420;5.454;2022-07-29T03:14:25;101349.59;;;16.39;77.40
59029;BME280;45919;51.420;5.454;2022-07-29T03:15:27;101432.19;;;16.82;77.44
59029;BME280;45919;51.420;5.454;2022-07-29T03:16:29;101428.69;;;16.81;78.02
59029;BME280;45919;51.420;5.454;2022-07-29T03:17:31;101416.41;;;16.72;77.13
59029;BME280;45919;51.420;5.454;2022-07-29T03:18:33;101430.44;;;16.81;77.31
59029;BME280;45919;51.420;5.454;2022-07-29T03:19:35;101417.28;;;16.65;77.23
59029;BME280;45919;51.420;5.454;2022-07-29T03:20:38;101436.59;;;16.81;77.37
59029;BME280;45919;51.420;5.454;2022-07-29T03:21:40;101428.69;;;16.75;76.70
59029;BME280;45919;51.420;5.454;2022-07-29T03:22:42;101435.72;;;16.79;76.99
59029;BME280;45919;51.420;5.454;2022-07-29T03:23:45;101451.53;;;16.82;77.82
59029;BME280;45919;51.420;5.454;2022-07-29T03:24:47;101452.44;;;16.81;77.81
59029;BME280;45919;51.420;5.454;2022-07-29T03:25:49;101462.97;;;16.81;77.47
59029;BME280;45919;51.420;5.454;2022-07-29T03:26:51;101455.94;;;16.80;78.48
59029;BME280;45919;51.420;5.454;2022-07-29T03:27:53;101454.19;;;16.79;77.75
59029;BME280;45919;51.420;5.454;2022-07-29T03:28:54;101448.91;;;16.81;77.83
59029;BME280;45919;51.420;5.454;2022-07-29T03:29:56;101455.06;;;16.83;77.38
59029;BME280;45919;51.420;5.454;2022-07-29T03:30:57;101438.38;;;16.78;77.62
59029;BME280;45919;51.420;5.454;2022-07-29T03:31:59;101455.94;;;16.87;78.59
59029;BME280;45919;51.420;5.454;2022-07-29T03:33:01;101436.59;;;16.81;77.48
59029;BME280;45919;51.420;5.454;2022-07-29T03:34:03;101425.16;;;16.71;77.68
59029;BME280;45919;51.420;5.454;2022-07-29T03:35:05;101432.19;;;16.85;77.88
59029;BME280;45919;51.420;5.454;2022-07-29T03:36:07;101432.19;;;16.85;77.30
59029;BME280;45919;51.420;5.454;2022-07-29T03:37:08;101425.16;;;16.84;77.24
59029;BME280;45919;51.420;5.454;2022-07-29T03:38:10;101432.19;;;16.82;77.39
59029;BME280;45919;51.420;5.454;2022-07-29T03:39:14;101427.78;;;16.81;76.48
59029;BME280;45919;51.420;5.454;2022-07-29T03:40:24;101418.13;;;16.83;77.16
59029;BME280;45919;51.420;5.454;2022-07-29T03:41:27;101375.06;;;16.51;76.26
59029;BME280;45919;51.420;5.454;2022-07-29T03:42:31;101415.50;;;16.72;76.64
59029;BME280;45919;51.420;5.454;2022-07-29T03:43:37;101423.41;;;16.66;75.87
59029;BME280;45919;51.420;5.454;2022-07-29T03:44:41;101419.91;;;16.65;76.26
59029;BME280;45919;51.420;5.454;2022-07-29T03:45:47;101389.16;;;16.44;75.80
59029;BME280;45919;51.420;5.454;2022-07-29T03:46:50;101399.72;;;16.48;76.22
59029;BME280;45919;51.420;5.454;2022-07-29T03:48:01;101415.50;;;16.61;76.40
59029;BME280;45919;51.420;5.454;2022-07-29T03:49:04;101397.06;;;16.41;76.70
59029;BME280;45919;51.420;5.454;2022-07-29T03:50:07;101427.84;;;16.54;76.05
59029;BME280;45919;51.420;5.454;2022-07-29T03:51:09;101424.31;;;16.52;75.66
59029;BME280;45919;51.420;5.454;2022-07-29T03:52:11;101424.28;;;16.47;75.39
59029;BME280;45919;51.420;5.454;2022-07-29T03:53:13;101426.94;;;16.46;76.47
59029;BME280;45919;51.420;5.454;2022-07-29T03:54:15;101411.13;;;16.35;76.10
59029;BME280;45919;51.420;5.454;2022-07-29T03:55:17;101428.69;;;16.44;76.05
59029;BME280;45919;51.420;5.454;2022-07-29T03:56:21;101422.56;;;16.45;76.09
59029;BME280;45919;51.420;5.454;2022-07-29T03:57:25;101436.59;;;16.44;76.62
59029;BME280;45919;51.420;5.454;2022-07-29T03:58:30;101423.44;;;16.39;77.13
59029;BME280;45919;51.420;5.454;2022-07-29T03:59:33;101434.88;;;16.41;77.33
59029;BME280;45919;51.420;5.454;2022-07-29T04:00:36;101436.59;;;16.42;77.67
59029;BME280;45919;51.420;5.454;2022-07-29T04:01:39;101432.22;;;16.43;76.74
59029;BME280;45919;51.420;5.454;2022-07-29T04:02:43;101430.47;;;16.45;77.13
59029;BME280;45919;51.420;5.454;2022-07-29T04:03:49;101421.69;;;16.41;76.51
59029;BME280;45919;51.420;5.454;2022-07-29T04:04:51;101426.06;;;16.44;76.69
59029;BME280;45919;51.420;5.454;2022-07-29T04:06:00;101421.66;;;16.49;77.16
59029;BME280;45919;51.420;5.454;2022-07-29T04:07:02;101397.03;;;16.23;76.35
59029;BME280;45919;51.420;5.454;2022-07-29T04:08:05;101413.75;;;16.33;76.72
59029;BME280;45919;51.420;5.454;2022-07-29T04:09:07;101412.88;;;16.33;77.24
59029;BME280;45919;51.420;5.454;2022-07-29T04:10:09;101411.13;;;16.30;77.16
59029;BME280;45919;51.420;5.454;2022-07-29T04:11:11;101404.09;;;16.28;77.23
59029;BME280;45919;51.420;5.454;2022-07-29T04:12:13;101401.47;;;16.21;77.48
59029;BME280;45919;51.420;5.454;2022-07-29T04:13:15;101408.47;;;16.25;77.28
59029;BME280;45919;51.420;5.454;2022-07-29T04:14:16;101404.97;;;16.25;78.27
59029;BME280;45919;51.420;5.454;2022-07-29T04:15:18;101412.00;;;16.24;78.42
59029;BME280;45919;51.420;5.454;2022-07-29T04:16:20;101410.22;;;16.20;78.59
59029;BME280;45919;51.420;5.454;2022-07-29T04:17:21;101420.78;;;16.23;77.78
59029;BME280;45919;51.420;5.454;2022-07-29T04:18:23;101426.03;;;16.22;77.51
59029;BME280;45919;51.420;5.454;2022-07-29T04:19:25;101406.72;;;16.02;77.81
59029;BME280;45919;51.420;5.454;2022-07-29T04:20:26;101419.91;;;16.13;78.69
59029;BME280;45919;51.420;5.454;2022-07-29T04:21:28;101426.06;;;16.16;78.25
59029;BME280;45919;51.420;5.454;2022-07-29T04:22:30;101406.72;;;16.06;77.16
59029;BME280;45919;51.420;5.454;2022-07-29T04:23:32;101434.84;;;16.21;77.50
59029;BME280;45919;51.420;5.454;2022-07-29T04:24:36;101403.19;;;16.05;77.63
59029;BME280;45919;51.420;5.454;2022-07-29T04:25:39;101434.84;;;16.22;78.04
59029;BME280;45919;51.420;5.454;2022-07-29T04:26:41;101438.38;;;16.21;77.75
59029;BME280;45919;51.420;5.454;2022-07-29T04:27:42;101435.72;;;16.21;77.13
59029;BME280;45919;51.420;5.454;2022-07-29T04:29:01;101413.75;;;16.10;77.42
59029;BME280;45919;51.420;5.454;2022-07-29T04:30:03;101429.56;;;16.19;77.88
59029;BME280;45919;51.420;5.454;2022-07-29T04:31:04;101433.06;;;16.20;77.76
59029;BME280;45919;51.420;5.454;2022-07-29T04:32:06;101427.81;;;16.23;77.04
59029;BME280;45919;51.420;5.454;2022-07-29T04:33:08;101438.38;;;16.23;77.19
59029;BME280;45919;51.420;5.454;2022-07-29T04:34:10;101436.59;;;16.23;77.30
59029;BME280;45919;51.420;5.454;2022-07-29T04:35:12;101443.63;;;16.24;76.33
59029;BME280;45919;51.420;5.454;2022-07-29T04:36:13;101410.22;;;16.09;76.70
59029;BME280;45919;51.420;5.454;2022-07-29T04:37:15;101440.09;;;16.24;75.60
59029;BME280;45919;51.420;5.454;2022-07-29T04:38:16;101443.63;;;16.23;77.20
59029;BME280;45919;51.420;5.454;2022-07-29T04:39:18;101446.28;;;16.23;77.09
59029;BME280;45919;51.420;5.454;2022-07-29T04:40:22;101443.63;;;16.24;77.53
59029;BME280;45919;51.420;5.454;2022-07-29T04:41:24;101458.56;;;16.25;76.55
59029;BME280;45919;51.420;5.454;2022-07-29T04:42:26;101454.16;;;16.28;76.70
59029;BME280;45919;51.420;5.454;2022-07-29T04:43:27;101454.19;;;16.26;77.15
59029;BME280;45919;51.420;5.454;2022-07-29T04:44:29;101434.81;;;16.16;76.72
59029;BME280;45919;51.420;5.454;2022-07-29T04:45:30;101435.72;;;16.18;77.06
59029;BME280;45919;51.420;5.454;2022-07-29T04:46:32;101455.06;;;16.31;77.02
59029;BME280;45919;51.420;5.454;2022-07-29T04:47:34;101461.22;;;16.32;76.56
59029;BME280;45919;51.420;5.454;2022-07-29T04:48:36;101462.09;;;16.34;77.09
59029;BME280;45919;51.420;5.454;2022-07-29T04:49:38;101446.25;;;16.20;77.62
59029;BME280;45919;51.420;5.454;2022-07-29T04:50:40;101470.00;;;16.38;77.45
59029;BME280;45919;51.420;5.454;2022-07-29T04:51:42;101477.06;;;16.40;76.98
59029;BME280;45919;51.420;5.454;2022-07-29T04:52:43;101474.41;;;16.43;76.52
59029;BME280;45919;51.420;5.454;2022-07-29T04:53:45;101473.53;;;16.42;76.89
59029;BME280;45919;51.420;5.454;2022-07-29T04:54:47;101481.44;;;16.47;76.82
59029;BME280;45919;51.420;5.454;2022-07-29T04:55:48;101462.09;;;16.40;76.55
59029;BME280;45919;51.420;5.454;2022-07-29T04:56:50;101470.91;;;16.48;75.66
59029;BME280;45919;51.420;5.454;2022-07-29T04:57:51;101476.19;;;16.48;75.86
59029;BME280;45919;51.420;5.454;2022-07-29T04:58:53;101481.44;;;16.48;76.12
59029;BME280;45919;51.420;5.454;2022-07-29T04:59:55;101477.91;;;16.49;75.88
59029;BME280;45919;51.420;5.454;2022-07-29T05:00:56;101471.78;;;16.44;75.29
59029;BME280;45919;51.420;5.454;2022-07-29T05:01:58;101477.91;;;16.49;76.38
59029;BME280;45919;51.420;5.454;2022-07-29T05:02:59;101461.22;;;16.33;75.35
59029;BME280;45919;51.420;5.454;2022-07-29T05:04:01;101484.94;;;16.47;76.85
59029;BME280;45919;51.420;5.454;2022-07-29T05:05:03;101499.00;;;16.49;76.79
59029;BME280;45919;51.420;5.454;2022-07-29T05:06:05;101496.38;;;16.49;76.31
59029;BME280;45919;51.420;5.454;2022-07-29T05:07:06;101469.13;;;16.40;77.61
59029;BME280;45919;51.420;5.454;2022-07-29T05:08:08;101487.59;;;16.55;77.13
59029;BME280;45919;51.420;5.454;2022-07-29T05:09:09;101476.16;;;16.53;76.59
59029;BME280;45919;51.420;5.454;2022-07-29T05:10:11;101480.56;;;16.54;76.60
59029;BME280;45919;51.420;5.454;2022-07-29T05:11:13;101488.50;;;16.54;76.56
59029;BME280;45919;51.420;5.454;2022-07-29T05:12:17;101475.28;;;16.48;76.09
59029;BME280;45919;51.420;5.454;2022-07-29T05:13:18;101485.81;;;16.53;77.43
59029;BME280;45919;51.420;5.454;2022-07-29T05:14:20;101487.59;;;16.54;77.06
59029;BME280;45919;51.420;5.454;2022-07-29T05:15:21;101492.88;;;16.55;76.02
59029;BME280;45919;51.420;5.454;2022-07-29T05:16:23;101485.84;;;16.49;75.84
59029;BME280;45919;51.420;5.454;2022-07-29T05:17:26;101480.56;;;16.48;76.03
59029;BME280;45919;51.420;5.454;2022-07-29T05:18:28;101489.34;;;16.45;76.44
59029;BME280;45919;51.420;5.454;2022-07-29T05:19:29;101490.22;;;16.44;74.64
59029;BME280;45919;51.420;5.454;2022-07-29T05:20:31;101491.13;;;16.45;75.44
59029;BME280;45919;51.420;5.454;2022-07-29T05:21:34;101480.56;;;16.37;75.77
59029;BME280;45919;51.420;5.454;2022-07-29T05:22:35;101488.44;;;16.42;76.09
59029;BME280;45919;51.420;5.454;2022-07-29T05:23:37;101460.31;;;16.22;75.99
59029;BME280;45919;51.420;5.454;2022-07-29T05:24:38;101484.97;;;16.40;75.97
59029;BME280;45919;51.420;5.454;2022-07-29T05:25:40;101484.06;;;16.37;76.26
59029;BME280;45919;51.420;5.454;2022-07-29T05:26:42;101471.75;;;16.35;75.90
59029;BME280;45919;51.420;5.454;2022-07-29T05:27:43;101472.66;;;16.35;76.29
59029;BME280;45919;51.420;5.454;2022-07-29T05:28:45;101471.75;;;16.30;76.37
59029;BME280;45919;51.420;5.454;2022-07-29T05:29:47;101475.28;;;16.34;76.81
59029;BME280;45919;51.420;5.454;2022-07-29T05:30:49;101462.97;;;16.25;77.28
59029;BME280;45919;51.420;5.454;2022-07-29T05:31:50;101477.03;;;16.35;77.15
59029;BME280;45919;51.420;5.454;2022-07-29T05:32:54;101479.66;;;16.36;77.29
59029;BME280;45919;51.420;5.454;2022-07-29T05:33:55;101480.56;;;16.37;76.34
59029;BME280;45919;51.420;5.454;2022-07-29T05:34:57;101475.28;;;16.37;76.35
59029;BME280;45919;51.420;5.454;2022-07-29T05:35:58;101474.38;;;16.36;76.62
59029;BME280;45919;51.420;5.454;2022-07-29T05:37:00;101475.28;;;16.38;75.75
59029;BME280;45919;51.420;5.454;2022-07-29T05:38:03;101461.22;;;16.32;76.09
59029;BME280;45919;51.420;5.454;2022-07-29T05:39:05;101476.16;;;16.37;76.28
59029;BME280;45919;51.420;5.454;2022-07-29T05:40:07;101477.91;;;16.35;76.47
59029;BME280;45919;51.420;5.454;2022-07-29T05:41:09;101471.75;;;16.38;76.45
59029;BME280;45919;51.420;5.454;2022-07-29T05:42:11;101476.16;;;16.37;76.68